createdAt,value
2017-06-30T06:21:47.234Z,25.59
2017-06-30T06:22:08.224Z,25.58
2017-06-30T06:22:32.013Z,25.54
2017-06-30T06:22:51.057Z,25.53
2017-06-30T06:23:07.858Z,25.52
2017-06-30T06:23:24.949Z,25.52
2017-06-30T06:23:46.661Z,25.54
2017-06-30T06:24:08.680Z,25.56
2017-06-30T06:24:32.195Z,25.58
2017-06-30T06:24:51.885Z,25.62
2017-06-30T06:25:09.191Z,25.62
2017-06-30T06:25:29.183Z,25.63
2017-06-30T06:25:51.382Z,25.65
2017-06-30T06:26:12.171Z,25.66
2017-06-30T06:26:28.347Z,25.66
2017-06-30T06:26:50.300Z,25.64
2017-06-30T06:27:12.903Z,25.62
2017-06-30T06:27:34.099Z,25.63
2017-06-30T06:27:56.154Z,25.63
2017-06-30T06:28:19.250Z,25.61
2017-06-30T06:28:41.678Z,25.56
2017-06-30T06:29:03.153Z,25.59
2017-06-30T06:29:25.810Z,25.57
2017-06-30T06:29:51.144Z,25.60
2017-06-30T06:30:12.127Z,25.57
2017-06-30T06:30:33.082Z,25.58
2017-06-30T06:30:51.824Z,25.60
2017-06-30T06:31:20.112Z,25.60
2017-06-30T06:31:37.109Z,25.60
2017-06-30T06:32:01.110Z,25.60
2017-06-30T06:32:18.457Z,25.59
2017-06-30T06:32:35.557Z,25.60
2017-06-30T06:32:52.757Z,25.61
2017-06-30T06:33:10.682Z,25.62
2017-06-30T06:33:29.625Z,25.63
2017-06-30T06:33:50.618Z,25.62
2017-06-30T06:34:07.820Z,25.63
2017-06-30T06:34:28.074Z,25.62
2017-06-30T06:34:47.117Z,25.62
2017-06-30T06:35:08.065Z,25.63
2017-06-30T06:35:27.895Z,25.61
2017-06-30T06:35:48.169Z,25.58
2017-06-30T06:36:08.543Z,25.58
2017-06-30T06:36:32.915Z,25.53
2017-06-30T06:36:52.893Z,25.51
2017-06-30T06:37:18.039Z,25.51
2017-06-30T06:37:38.482Z,25.54
2017-06-30T06:37:59.442Z,25.55
2017-06-30T06:38:22.823Z,25.55
2017-06-30T06:38:43.996Z,25.57
2017-06-30T06:39:06.038Z,25.54
2017-06-30T06:39:27.014Z,25.56
2017-06-30T06:39:48.008Z,25.58
2017-06-30T06:40:05.600Z,25.55
2017-06-30T06:40:22.597Z,25.56
2017-06-30T06:40:40.113Z,25.57
2017-06-30T06:40:59.460Z,25.55
2017-06-30T06:41:20.988Z,25.53
2017-06-30T06:41:42.481Z,25.53
2017-06-30T06:42:04.798Z,25.51
2017-06-30T06:42:24.968Z,25.53
2017-06-30T06:42:46.035Z,25.54
2017-06-30T06:43:03.575Z,25.54
2017-06-30T06:43:20.674Z,25.54
2017-06-30T06:43:40.539Z,25.57
2017-06-30T06:43:58.956Z,25.58
2017-06-30T06:44:19.763Z,25.60
2017-06-30T06:44:38.947Z,25.61
2017-06-30T06:44:59.977Z,25.58
2017-06-30T06:45:21.976Z,25.59
2017-06-30T06:45:44.942Z,25.59
2017-06-30T06:46:09.842Z,25.59
2017-06-30T06:46:28.970Z,25.59
2017-06-30T06:46:50.730Z,25.59
2017-06-30T06:47:08.407Z,25.59
2017-06-30T06:47:28.890Z,25.59
2017-06-30T06:47:47.223Z,25.60
2017-06-30T06:48:06.904Z,25.62
2017-06-30T06:48:28.691Z,25.62
2017-06-30T06:48:50.032Z,25.58
2017-06-30T06:49:08.454Z,25.59
2017-06-30T06:49:29.722Z,25.56
2017-06-30T06:49:51.886Z,25.59
2017-06-30T06:50:09.862Z,25.60
2017-06-30T06:50:29.878Z,25.61
2017-06-30T06:50:48.672Z,25.63
2017-06-30T06:51:08.866Z,25.63
2017-06-30T06:51:26.771Z,25.63
2017-06-30T06:51:48.859Z,25.65
2017-06-30T06:52:08.339Z,25.66
2017-06-30T06:52:26.259Z,25.65
2017-06-30T06:52:47.847Z,25.62
2017-06-30T06:53:05.589Z,25.65
2017-06-30T06:53:25.651Z,25.64
2017-06-30T06:53:44.291Z,25.66
2017-06-30T06:54:06.415Z,25.67
2017-06-30T06:54:25.827Z,25.68
2017-06-30T06:54:42.351Z,25.71
2017-06-30T06:55:03.750Z,25.69
2017-06-30T06:55:27.318Z,25.71
2017-06-30T06:55:49.813Z,25.73
2017-06-30T06:56:09.184Z,25.73
2017-06-30T06:56:32.820Z,25.74
2017-06-30T06:56:52.396Z,25.75
2017-06-30T06:57:09.810Z,25.75
2017-06-30T06:57:30.793Z,25.77
2017-06-30T06:57:51.483Z,25.76
2017-06-30T06:58:10.336Z,25.75
2017-06-30T06:58:28.453Z,25.77
2017-06-30T06:58:47.295Z,25.77
2017-06-30T06:59:05.117Z,25.76
2017-06-30T06:59:23.769Z,25.75
2017-06-30T06:59:44.825Z,25.75
2017-06-30T07:00:05.758Z,25.76
2017-06-30T07:00:26.006Z,25.75
2017-06-30T07:00:44.948Z,25.69
2017-06-30T07:01:04.606Z,25.72
2017-06-30T07:01:23.714Z,25.73
2017-06-30T07:01:43.801Z,25.73
2017-06-30T07:02:03.756Z,25.76
2017-06-30T07:02:27.051Z,25.74
2017-06-30T07:02:50.725Z,25.75
2017-06-30T07:03:12.507Z,25.76
2017-06-30T07:03:31.146Z,25.72
2017-06-30T07:03:53.711Z,25.71
2017-06-30T07:04:15.706Z,25.69
2017-06-30T07:04:31.743Z,25.68
2017-06-30T07:04:48.468Z,25.66
2017-06-30T07:05:09.245Z,25.67
2017-06-30T07:05:26.672Z,25.64
2017-06-30T07:05:44.985Z,25.65
2017-06-30T07:06:04.226Z,25.67
2017-06-30T07:06:21.846Z,25.67
2017-06-30T07:06:44.069Z,25.69
2017-06-30T07:07:01.878Z,25.71
2017-06-30T07:07:21.667Z,25.72
2017-06-30T07:07:43.367Z,25.75
2017-06-30T07:08:03.662Z,25.78
2017-06-30T07:08:20.115Z,25.78
2017-06-30T07:08:40.386Z,25.78
2017-06-30T07:09:00.769Z,25.76
2017-06-30T07:09:19.304Z,25.75
2017-06-30T07:09:37.633Z,25.76
2017-06-30T07:09:55.637Z,25.74
2017-06-30T07:10:13.573Z,25.75
2017-06-30T07:10:32.634Z,25.75
2017-06-30T07:10:51.359Z,25.76
2017-06-30T07:11:11.556Z,25.76
2017-06-30T07:11:33.619Z,25.76
2017-06-30T07:11:56.483Z,25.74
2017-06-30T07:12:18.096Z,25.73
2017-06-30T07:12:40.603Z,25.73
2017-06-30T07:13:01.598Z,25.72
2017-06-30T07:13:24.596Z,25.75
2017-06-30T07:13:43.694Z,25.77
2017-06-30T07:14:03.462Z,25.76
2017-06-30T07:14:24.247Z,25.77
2017-06-30T07:14:41.451Z,25.79
2017-06-30T07:15:01.313Z,25.79
2017-06-30T07:15:21.570Z,25.79
2017-06-30T07:15:44.117Z,25.80
2017-06-30T07:16:06.561Z,25.80
2017-06-30T07:16:25.694Z,25.79
2017-06-30T07:16:47.505Z,25.80
2017-06-30T07:17:08.547Z,25.79
2017-06-30T07:17:31.887Z,25.80
2017-06-30T07:17:50.571Z,25.82
2017-06-30T07:18:10.536Z,25.82
2017-06-30T07:18:34.531Z,25.81
2017-06-30T07:18:53.048Z,25.75
2017-06-30T07:19:15.522Z,25.77
2017-06-30T07:19:33.557Z,25.79
2017-06-30T07:19:54.487Z,25.81
2017-06-30T07:20:17.508Z,25.81
2017-06-30T07:20:40.504Z,25.84
2017-06-30T07:20:58.587Z,25.84
2017-06-30T07:21:16.819Z,25.82
2017-06-30T07:21:36.172Z,25.79
2017-06-30T07:21:56.037Z,25.62
2017-06-30T07:22:15.287Z,25.38
2017-06-30T07:22:32.389Z,25.18
2017-06-30T07:22:51.480Z,25.17
2017-06-30T07:23:09.475Z,25.02
2017-06-30T07:23:28.705Z,25.00
2017-06-30T07:23:47.522Z,24.90
2017-06-30T07:24:05.364Z,24.99
2017-06-30T07:24:26.153Z,25.08
2017-06-30T07:24:43.661Z,24.93
2017-06-30T07:25:01.451Z,25.01
2017-06-30T07:25:24.113Z,25.10
2017-06-30T07:25:42.544Z,25.13
2017-06-30T07:26:02.008Z,25.20
2017-06-30T07:26:22.787Z,25.17
2017-06-30T07:26:44.440Z,25.13
2017-06-30T07:27:02.431Z,25.03
2017-06-30T07:27:24.843Z,24.97
2017-06-30T07:27:46.425Z,25.05
2017-06-30T07:28:07.070Z,25.10
2017-06-30T07:28:28.414Z,25.18
2017-06-30T07:28:45.939Z,25.24
2017-06-30T07:29:08.414Z,25.29
2017-06-30T07:29:30.418Z,25.35
2017-06-30T07:29:51.392Z,25.40
2017-06-30T07:30:12.389Z,25.42
2017-06-30T07:30:30.902Z,25.46
2017-06-30T07:30:53.837Z,25.50
2017-06-30T07:31:14.829Z,25.53
2017-06-30T07:31:35.372Z,25.55
2017-06-30T07:31:52.102Z,25.58
2017-06-30T07:32:08.793Z,25.59
2017-06-30T07:32:28.966Z,25.60
2017-06-30T07:32:49.386Z,25.61
2017-06-30T07:33:10.348Z,25.63
2017-06-30T07:33:28.346Z,25.65
2017-06-30T07:33:51.349Z,25.67
2017-06-30T07:34:12.290Z,25.67
2017-06-30T07:34:34.388Z,25.64
2017-06-30T07:34:55.335Z,25.63
2017-06-30T07:35:15.272Z,25.62
2017-06-30T07:35:38.306Z,25.66
2017-06-30T07:35:58.317Z,25.67
2017-06-30T07:36:17.750Z,25.68
2017-06-30T07:36:36.057Z,25.69
2017-06-30T07:36:53.316Z,25.69
2017-06-30T07:37:11.301Z,25.68
2017-06-30T07:37:32.016Z,25.62
2017-06-30T07:37:52.754Z,25.55
2017-06-30T07:38:13.031Z,25.49
2017-06-30T07:38:29.624Z,25.40
2017-06-30T07:38:49.587Z,25.37
2017-06-30T07:39:10.582Z,25.31
2017-06-30T07:39:28.708Z,25.32
2017-06-30T07:39:48.077Z,25.34
2017-06-30T07:40:04.955Z,25.37
2017-06-30T07:40:25.267Z,25.38
2017-06-30T07:40:48.476Z,25.43
2017-06-30T07:41:07.262Z,25.45
2017-06-30T07:41:29.252Z,25.47
2017-06-30T07:41:48.174Z,25.50
2017-06-30T07:42:07.233Z,25.50
2017-06-30T07:42:24.733Z,25.52
2017-06-30T07:42:48.231Z,25.55
2017-06-30T07:43:12.231Z,25.53
2017-06-30T07:43:33.549Z,25.53
2017-06-30T07:43:52.597Z,25.55
2017-06-30T07:44:11.636Z,25.58
2017-06-30T07:44:28.430Z,25.60
2017-06-30T07:44:48.498Z,25.63
2017-06-30T07:45:07.135Z,25.63
2017-06-30T07:45:27.104Z,25.62
2017-06-30T07:45:47.689Z,25.55
2017-06-30T07:46:08.181Z,25.51
2017-06-30T07:46:28.645Z,25.51
2017-06-30T07:46:46.250Z,25.51
2017-06-30T07:47:06.854Z,25.52
2017-06-30T07:47:24.658Z,25.53
2017-06-30T07:47:43.601Z,25.54
2017-06-30T07:48:05.838Z,25.55
2017-06-30T07:48:26.416Z,25.56
2017-06-30T07:48:48.053Z,25.57
2017-06-30T07:49:03.887Z,25.59
2017-06-30T07:49:20.374Z,25.60
2017-06-30T07:49:40.655Z,25.62
2017-06-30T07:50:00.142Z,25.64
2017-06-30T07:50:18.944Z,25.64
2017-06-30T07:50:36.396Z,25.66
2017-06-30T07:50:53.867Z,25.67
2017-06-30T07:51:13.521Z,25.68
2017-06-30T07:51:31.447Z,25.67
2017-06-30T07:51:51.156Z,25.66
2017-06-30T07:52:08.714Z,25.64
2017-06-30T07:52:28.804Z,25.63
2017-06-30T07:52:48.107Z,25.62
2017-06-30T07:53:06.104Z,25.58
2017-06-30T07:53:26.100Z,25.55
2017-06-30T07:54:19.280Z,25.54
2017-06-30T07:54:36.786Z,25.55
2017-06-30T07:54:56.650Z,25.53
2017-06-30T07:55:20.097Z,25.52
2017-06-30T07:55:39.969Z,25.49
2017-06-30T07:56:01.186Z,25.45
2017-06-30T07:56:21.030Z,25.45
2017-06-30T07:56:39.059Z,25.41
2017-06-30T07:57:00.561Z,25.43
2017-06-30T07:57:22.880Z,25.46
2017-06-30T07:57:45.009Z,25.47
2017-06-30T07:58:05.784Z,25.49
2017-06-30T07:58:28.041Z,25.47
2017-06-30T07:58:49.613Z,25.41
2017-06-30T07:59:09.030Z,25.38
2017-06-30T07:59:28.423Z,25.40
2017-06-30T07:59:48.392Z,25.42
2017-06-30T08:00:04.567Z,25.43
2017-06-30T08:00:23.718Z,25.44
2017-06-30T08:00:45.529Z,25.46
2017-06-30T08:01:05.012Z,25.46
2017-06-30T08:01:22.804Z,25.46
2017-06-30T08:01:42.721Z,25.47
2017-06-30T08:01:59.159Z,25.50
2017-06-30T08:02:16.978Z,25.52
2017-06-30T08:02:38.019Z,25.54
2017-06-30T08:02:58.982Z,25.56
2017-06-30T08:03:21.484Z,25.58
2017-06-30T08:03:42.047Z,25.58
2017-06-30T08:04:06.970Z,25.59
2017-06-30T08:04:24.975Z,25.61
2017-06-30T08:04:44.537Z,25.61
2017-06-30T08:05:03.957Z,25.61
2017-06-30T08:05:25.039Z,25.61
2017-06-30T08:05:48.124Z,25.61
2017-06-30T08:06:06.947Z,25.61
2017-06-30T08:06:24.063Z,25.62
2017-06-30T08:06:45.159Z,25.62
2017-06-30T08:07:06.766Z,25.62
2017-06-30T08:07:27.930Z,25.61
2017-06-30T08:07:46.205Z,25.61
2017-06-30T08:08:06.920Z,25.61
2017-06-30T08:08:27.915Z,25.61
2017-06-30T08:08:46.298Z,25.61
2017-06-30T08:09:03.396Z,25.62
2017-06-30T08:09:20.497Z,25.61
2017-06-30T08:09:42.902Z,25.61
2017-06-30T08:09:58.898Z,25.59
2017-06-30T08:10:19.580Z,25.59
2017-06-30T08:10:40.888Z,25.59
2017-06-30T08:11:03.721Z,25.57
2017-06-30T08:11:23.478Z,25.57
2017-06-30T08:11:40.381Z,25.59
2017-06-30T08:11:57.377Z,25.59
2017-06-30T08:12:17.557Z,25.59
2017-06-30T08:12:37.866Z,25.59
2017-06-30T08:12:56.063Z,25.60
2017-06-30T08:13:16.871Z,25.60
2017-06-30T08:13:36.854Z,25.60
2017-06-30T08:13:56.261Z,25.59
2017-06-30T08:14:14.384Z,25.59
2017-06-30T08:14:36.840Z,25.60
2017-06-30T08:15:00.364Z,25.59
2017-06-30T08:15:18.283Z,25.61
2017-06-30T08:15:40.838Z,25.61
2017-06-30T08:16:04.366Z,25.61
2017-06-30T08:16:23.309Z,25.62
2017-06-30T08:16:41.537Z,25.62
2017-06-30T08:17:01.709Z,25.63
2017-06-30T08:17:26.805Z,25.64
2017-06-30T08:17:43.803Z,25.63
2017-06-30T08:18:03.053Z,25.64
2017-06-30T08:18:22.804Z,25.64
2017-06-30T08:18:41.756Z,25.63
2017-06-30T08:19:00.392Z,25.63
2017-06-30T08:19:20.359Z,25.63
2017-06-30T08:19:42.780Z,25.63
2017-06-30T08:20:04.390Z,25.64
2017-06-30T08:20:26.771Z,25.64
2017-06-30T08:20:46.268Z,25.64
2017-06-30T08:21:04.910Z,25.64
2017-06-30T08:21:24.573Z,25.64
2017-06-30T08:21:46.755Z,25.65
2017-06-30T08:22:09.124Z,25.65
2017-06-30T08:22:32.062Z,25.65
2017-06-30T08:22:51.764Z,25.64
2017-06-30T08:23:11.067Z,25.63
2017-06-30T08:23:34.734Z,25.63
2017-06-30T08:23:53.727Z,25.63
2017-06-30T08:24:11.724Z,25.62
2017-06-30T08:24:32.726Z,25.61
2017-06-30T08:24:49.064Z,25.61
2017-06-30T08:25:09.715Z,25.62
2017-06-30T08:25:28.285Z,25.62
2017-06-30T08:25:45.763Z,25.62
2017-06-30T08:26:06.337Z,25.61
2017-06-30T08:26:23.982Z,25.62
2017-06-30T08:26:46.202Z,25.62
2017-06-30T08:27:04.230Z,25.62
2017-06-30T08:27:26.683Z,25.63
2017-06-30T08:27:45.679Z,25.63
2017-06-30T08:28:05.675Z,25.63
2017-06-30T08:28:25.672Z,25.62
2017-06-30T08:28:41.309Z,25.61
2017-06-30T08:29:00.150Z,25.61
2017-06-30T08:29:20.661Z,25.63
2017-06-30T08:29:39.468Z,25.64
2017-06-30T08:29:58.306Z,25.62
2017-06-30T08:30:16.661Z,25.64
2017-06-30T08:30:35.515Z,25.65
2017-06-30T08:30:56.641Z,25.64
2017-06-30T08:31:18.639Z,25.65
2017-06-30T08:31:37.223Z,25.66
2017-06-30T08:31:58.644Z,25.67
2017-06-30T08:32:16.249Z,25.67
2017-06-30T08:32:38.288Z,25.67
2017-06-30T08:32:58.334Z,25.67
2017-06-30T08:33:18.612Z,25.66
2017-06-30T08:33:39.388Z,25.67
2017-06-30T08:33:57.635Z,25.68
2017-06-30T08:34:19.018Z,25.67
2017-06-30T08:34:44.420Z,25.67
2017-06-30T08:35:07.589Z,25.66
2017-06-30T08:35:28.447Z,25.67
2017-06-30T08:35:47.803Z,25.67
2017-06-30T08:36:06.577Z,25.68
2017-06-30T08:36:25.380Z,25.68
2017-06-30T08:36:44.225Z,25.69
2017-06-30T08:36:59.890Z,25.70
2017-06-30T08:37:19.593Z,25.70
2017-06-30T08:37:41.771Z,25.70
2017-06-30T08:38:02.048Z,25.70
2017-06-30T08:38:22.523Z,25.69
2017-06-30T08:38:40.545Z,25.72
2017-06-30T08:38:59.490Z,25.72
2017-06-30T08:39:18.128Z,25.72
2017-06-30T08:39:38.096Z,25.72
2017-06-30T08:39:56.835Z,25.72
2017-06-30T08:40:17.594Z,25.71
2017-06-30T08:40:38.523Z,25.72
2017-06-30T08:41:00.425Z,25.73
2017-06-30T08:41:19.515Z,25.73
2017-06-30T08:41:39.732Z,25.74
2017-06-30T08:41:58.281Z,25.73
2017-06-30T08:42:16.513Z,25.74
2017-06-30T08:42:38.519Z,25.75
2017-06-30T08:42:55.007Z,25.76
2017-06-30T08:43:13.489Z,25.75
2017-06-30T08:43:34.485Z,25.76
2017-06-30T08:43:52.504Z,25.76
2017-06-30T08:44:15.477Z,25.77
2017-06-30T08:44:37.829Z,25.79
2017-06-30T08:44:57.889Z,25.79
2017-06-30T08:45:17.041Z,25.80
2017-06-30T08:45:36.954Z,25.81
2017-06-30T08:45:56.767Z,25.81
2017-06-30T08:46:18.451Z,25.81
2017-06-30T08:46:35.889Z,25.81
2017-06-30T08:46:51.656Z,25.81
2017-06-30T08:47:10.602Z,25.80
2017-06-30T08:47:29.136Z,25.81
2017-06-30T08:47:47.434Z,25.82
2017-06-30T08:48:09.094Z,25.81
2017-06-30T08:48:26.407Z,25.80
2017-06-30T08:48:44.911Z,25.79
2017-06-30T08:49:02.934Z,25.80
2017-06-30T08:49:20.241Z,25.80
2017-06-30T08:49:39.905Z,25.81
2017-06-30T08:49:58.946Z,25.82
2017-06-30T08:50:19.739Z,25.82
2017-06-30T08:50:39.946Z,25.82
2017-06-30T08:51:02.409Z,25.83
2017-06-30T08:51:22.360Z,25.83
2017-06-30T08:51:40.864Z,25.83
2017-06-30T08:52:02.339Z,25.81
2017-06-30T08:52:20.434Z,25.81
2017-06-30T08:52:42.311Z,25.83
2017-06-30T08:53:02.348Z,25.83
2017-06-30T08:53:21.391Z,25.84
2017-06-30T08:53:40.376Z,25.84
2017-06-30T08:53:57.366Z,25.83
2017-06-30T08:54:14.942Z,25.83
2017-06-30T08:54:36.548Z,25.83
2017-06-30T08:54:55.425Z,25.83
2017-06-30T08:55:13.112Z,25.83
2017-06-30T08:55:28.466Z,25.83
2017-06-30T08:55:47.113Z,25.82
2017-06-30T08:56:05.434Z,25.82
2017-06-30T08:56:28.062Z,25.81
2017-06-30T08:56:47.829Z,25.80
2017-06-30T08:57:08.920Z,25.80
2017-06-30T08:57:31.972Z,25.78
2017-06-30T08:57:52.237Z,25.79
2017-06-30T08:58:11.339Z,25.80
2017-06-30T08:58:31.321Z,25.80
2017-06-30T08:58:52.553Z,25.80
2017-06-30T08:59:13.290Z,25.81
2017-06-30T08:59:34.024Z,25.81
2017-06-30T08:59:53.288Z,25.79
2017-06-30T09:00:12.115Z,25.80
2017-06-30T09:00:31.878Z,25.82
2017-06-30T09:00:51.149Z,25.83
2017-06-30T09:01:06.797Z,25.82
2017-06-30T09:01:24.820Z,25.80
2017-06-30T09:01:44.379Z,25.81
2017-06-30T09:02:05.574Z,25.82
2017-06-30T09:02:22.174Z,25.81
2017-06-30T09:02:42.768Z,25.81
2017-06-30T09:03:02.818Z,25.81
2017-06-30T09:03:21.060Z,25.81
2017-06-30T09:03:40.192Z,25.82
2017-06-30T09:04:02.139Z,25.81
2017-06-30T09:04:20.951Z,25.80
2017-06-30T09:04:42.558Z,25.80
2017-06-30T09:05:03.218Z,25.79
2017-06-30T09:05:24.141Z,25.80
2017-06-30T09:05:41.849Z,25.79
2017-06-30T09:06:00.994Z,25.78
2017-06-30T09:06:20.864Z,25.78
2017-06-30T09:06:38.813Z,25.79
2017-06-30T09:06:58.745Z,25.78
2017-06-30T09:07:17.997Z,25.80
2017-06-30T09:07:38.192Z,25.80
2017-06-30T09:07:56.185Z,25.80
2017-06-30T09:08:14.726Z,25.81
2017-06-30T09:08:34.387Z,25.81
2017-06-30T09:08:54.969Z,25.80
2017-06-30T09:09:14.733Z,25.80
2017-06-30T09:09:35.008Z,25.80
2017-06-30T09:09:59.394Z,25.80
2017-06-30T09:10:21.801Z,25.81
2017-06-30T09:10:45.265Z,25.83
2017-06-30T09:11:10.751Z,25.83
2017-06-30T09:11:30.720Z,25.85
2017-06-30T09:11:52.117Z,25.84
2017-06-30T09:12:12.141Z,25.84
2017-06-30T09:12:29.829Z,25.84
2017-06-30T09:12:51.135Z,25.86
2017-06-30T09:13:14.860Z,25.87
2017-06-30T09:13:36.130Z,25.87
2017-06-30T09:13:56.440Z,25.88
2017-06-30T09:14:18.556Z,25.89
2017-06-30T09:14:37.086Z,25.89
2017-06-30T09:14:57.053Z,25.88
2017-06-30T09:15:14.056Z,25.89
2017-06-30T09:15:32.096Z,25.89
2017-06-30T09:15:53.102Z,25.89
2017-06-30T09:16:11.720Z,25.91
2017-06-30T09:16:34.116Z,25.91
2017-06-30T09:16:54.080Z,25.90
2017-06-30T09:17:14.781Z,25.90
2017-06-30T09:17:38.024Z,25.90
2017-06-30T09:17:59.818Z,25.89
2017-06-30T09:18:20.068Z,25.90
2017-06-30T09:18:38.110Z,25.91
2017-06-30T09:18:58.078Z,25.91
2017-06-30T09:19:16.636Z,25.93
2017-06-30T09:19:37.331Z,25.92
2017-06-30T09:19:57.052Z,25.91
2017-06-30T09:20:16.040Z,25.90
2017-06-30T09:20:39.209Z,25.90
2017-06-30T09:21:02.626Z,25.90
2017-06-30T09:21:20.546Z,25.90
2017-06-30T09:21:40.413Z,25.90
2017-06-30T09:22:01.621Z,25.88
2017-06-30T09:22:24.339Z,25.89
2017-06-30T09:22:45.016Z,25.88
2017-06-30T09:23:03.967Z,25.88
2017-06-30T09:23:25.216Z,25.88
2017-06-30T09:23:47.493Z,25.89
2017-06-30T09:24:09.213Z,25.89
2017-06-30T09:24:27.732Z,25.90
2017-06-30T09:24:44.985Z,25.90
2017-06-30T09:25:02.960Z,25.90
2017-06-30T09:25:23.329Z,25.91
2017-06-30T09:25:48.015Z,25.93
2017-06-30T09:26:10.005Z,25.92
2017-06-30T09:26:31.040Z,25.93
2017-06-30T09:26:50.475Z,25.94
2017-06-30T09:27:10.867Z,25.94
2017-06-30T09:27:26.734Z,25.94
2017-06-30T09:27:43.924Z,25.95
2017-06-30T09:28:02.256Z,25.94
2017-06-30T09:28:23.939Z,25.94
2017-06-30T09:28:45.587Z,25.94
2017-06-30T09:29:07.928Z,25.94
2017-06-30T09:29:29.923Z,25.94
2017-06-30T09:29:48.937Z,25.95
2017-06-30T09:30:09.232Z,25.94
2017-06-30T09:30:30.332Z,25.95
2017-06-30T09:30:49.592Z,25.94
2017-06-30T09:31:08.010Z,25.94
2017-06-30T09:31:31.107Z,25.95
2017-06-30T09:31:53.693Z,25.93
2017-06-30T09:32:13.926Z,25.95
2017-06-30T09:32:37.885Z,25.95
2017-06-30T09:32:55.934Z,25.96
2017-06-30T09:33:14.983Z,25.97
2017-06-30T09:33:34.924Z,25.96
2017-06-30T09:33:56.662Z,25.96
2017-06-30T09:34:24.866Z,25.97
2017-06-30T09:34:43.766Z,25.97
2017-06-30T09:35:02.855Z,25.99
2017-06-30T09:35:20.857Z,25.99
2017-06-30T09:35:41.633Z,26.00
2017-06-30T09:35:59.441Z,26.00
2017-06-30T09:36:18.836Z,25.99
2017-06-30T09:36:37.427Z,26.00
2017-06-30T09:36:53.848Z,26.01
2017-06-30T09:37:11.632Z,26.01
2017-06-30T09:37:28.423Z,26.01
2017-06-30T09:37:46.549Z,26.02
2017-06-30T09:38:05.816Z,26.02
2017-06-30T09:38:26.810Z,26.03
2017-06-30T09:38:46.815Z,26.02
2017-06-30T09:39:05.605Z,26.03
2017-06-30T09:39:26.796Z,26.04
2017-06-30T09:39:50.792Z,26.06
2017-06-30T09:40:10.797Z,26.07
2017-06-30T09:40:33.783Z,26.08
2017-06-30T09:40:51.588Z,26.08
2017-06-30T09:41:11.788Z,26.10
2017-06-30T09:41:29.885Z,26.11
2017-06-30T09:41:46.981Z,26.12
2017-06-30T09:42:05.764Z,26.12
2017-06-30T09:42:26.762Z,26.10
2017-06-30T09:42:44.639Z,26.10
2017-06-30T09:43:04.756Z,26.11
2017-06-30T09:43:27.238Z,26.13
2017-06-30T09:43:51.743Z,26.14
2017-06-30T09:44:10.547Z,26.15
2017-06-30T09:44:31.562Z,26.16
2017-06-30T09:44:52.763Z,26.17
2017-06-30T09:45:11.278Z,26.14
2017-06-30T09:45:30.626Z,26.15
2017-06-30T09:45:50.389Z,26.16
2017-06-30T09:46:09.712Z,26.18
2017-06-30T09:46:30.708Z,26.17
2017-06-30T09:46:50.190Z,26.18
2017-06-30T09:47:08.434Z,26.20
2017-06-30T09:47:29.700Z,26.22
2017-06-30T09:47:50.692Z,26.20
2017-06-30T09:48:09.445Z,26.20
2017-06-30T09:48:28.684Z,26.21
2017-06-30T09:48:49.076Z,26.22
2017-06-30T09:49:08.676Z,26.22
2017-06-30T09:49:26.676Z,26.21
2017-06-30T09:49:49.666Z,26.20
2017-06-30T09:50:09.767Z,26.21
2017-06-30T09:50:34.658Z,26.22
2017-06-30T09:50:54.543Z,26.20
2017-06-30T09:51:13.651Z,26.20
2017-06-30T09:51:35.884Z,26.18
2017-06-30T09:51:54.724Z,26.18
2017-06-30T09:52:12.854Z,26.18
2017-06-30T09:52:36.200Z,26.17
2017-06-30T09:52:53.605Z,26.15
2017-06-30T09:53:14.392Z,26.14
2017-06-30T09:53:30.988Z,26.15
2017-06-30T09:53:49.420Z,26.15
2017-06-30T09:54:09.614Z,26.16
2017-06-30T09:54:27.095Z,26.17
2017-06-30T09:54:46.555Z,26.17
2017-06-30T09:55:08.610Z,26.18
2017-06-30T09:55:29.622Z,26.18
2017-06-30T09:55:48.403Z,26.18
2017-06-30T09:56:10.586Z,26.19
2017-06-30T09:56:28.754Z,26.20
2017-06-30T09:56:48.925Z,26.18
2017-06-30T09:57:08.575Z,26.20
2017-06-30T09:57:29.890Z,26.21
2017-06-30T09:57:47.393Z,26.20
2017-06-30T09:58:08.792Z,26.20
2017-06-30T09:58:27.533Z,26.21
2017-06-30T09:58:44.121Z,26.21
2017-06-30T09:59:01.553Z,26.21
2017-06-30T09:59:20.881Z,26.22
2017-06-30T09:59:39.595Z,26.22
2017-06-30T09:59:56.593Z,26.20
2017-06-30T10:00:14.846Z,26.20
2017-06-30T10:00:34.536Z,26.21
2017-06-30T10:00:52.528Z,26.20
2017-06-30T10:01:12.296Z,26.20
2017-06-30T10:01:32.835Z,26.21
2017-06-30T10:01:51.614Z,26.21
2017-06-30T10:02:09.335Z,26.21
2017-06-30T10:02:30.021Z,26.23
2017-06-30T10:02:49.063Z,26.23
2017-06-30T10:03:08.212Z,26.23
2017-06-30T10:03:27.771Z,26.23
2017-06-30T10:03:49.511Z,26.21
2017-06-30T10:04:09.489Z,26.21
2017-06-30T10:04:29.481Z,26.21
2017-06-30T10:04:49.482Z,26.21
2017-06-30T10:05:08.481Z,26.20
2017-06-30T10:05:30.471Z,26.21
2017-06-30T10:05:48.477Z,26.21
2017-06-30T10:06:08.500Z,26.21
2017-06-30T10:06:33.468Z,26.22
2017-06-30T10:06:54.452Z,26.20
2017-06-30T10:07:13.151Z,26.18
2017-06-30T10:07:33.499Z,26.18
2017-06-30T10:07:54.450Z,26.15
2017-06-30T10:08:14.999Z,26.14
2017-06-30T10:08:36.198Z,26.14
2017-06-30T10:08:57.906Z,26.15
2017-06-30T10:09:17.994Z,26.16
2017-06-30T10:09:38.869Z,26.17
2017-06-30T10:09:58.686Z,26.17
2017-06-30T10:10:19.413Z,26.19
2017-06-30T10:10:39.405Z,26.22
2017-06-30T10:11:00.400Z,26.20
2017-06-30T10:11:21.271Z,26.21
2017-06-30T10:11:39.908Z,26.21
2017-06-30T10:11:58.030Z,26.22
2017-06-30T10:12:17.075Z,26.22
2017-06-30T10:12:37.407Z,26.22
2017-06-30T10:12:58.468Z,26.21
2017-06-30T10:13:16.369Z,26.21
2017-06-30T10:13:35.517Z,26.21
2017-06-30T10:13:54.149Z,26.23
2017-06-30T10:14:11.872Z,26.20
2017-06-30T10:14:33.473Z,26.19
2017-06-30T10:14:53.040Z,26.20
2017-06-30T10:15:16.347Z,26.21
2017-06-30T10:15:34.090Z,26.21
2017-06-30T10:15:53.142Z,26.22
2017-06-30T10:16:14.152Z,26.22
2017-06-30T10:16:34.203Z,26.21
2017-06-30T10:16:52.632Z,26.21
2017-06-30T10:17:13.533Z,26.21
2017-06-30T10:17:35.318Z,26.22
2017-06-30T10:18:01.312Z,26.20
2017-06-30T10:18:21.208Z,26.19
2017-06-30T10:18:41.309Z,26.20
2017-06-30T10:18:58.300Z,26.18
2017-06-30T10:19:21.295Z,26.17
2017-06-30T10:19:38.116Z,26.17
2017-06-30T10:20:01.768Z,26.18
2017-06-30T10:20:24.296Z,26.20
2017-06-30T10:20:42.827Z,26.21
2017-06-30T10:21:01.062Z,26.22
2017-06-30T10:21:21.034Z,26.21
2017-06-30T10:21:44.270Z,26.21
2017-06-30T10:22:05.669Z,26.21
2017-06-30T10:22:26.263Z,26.21
2017-06-30T10:23:27.254Z,26.18
2017-06-30T10:23:50.241Z,26.18
2017-06-30T10:24:11.245Z,26.17
2017-06-30T10:24:30.232Z,26.18
2017-06-30T10:24:50.857Z,26.18
2017-06-30T10:25:11.224Z,26.19
2017-06-30T10:25:32.220Z,26.18
2017-06-30T10:25:51.216Z,26.20
2017-06-30T10:26:08.668Z,26.20
2017-06-30T10:26:28.207Z,26.18
2017-06-30T10:26:49.319Z,26.20
2017-06-30T10:27:13.204Z,26.21
2017-06-30T10:27:29.148Z,26.22
2017-06-30T10:27:46.673Z,26.22
2017-06-30T10:28:07.863Z,26.22
2017-06-30T10:28:26.612Z,26.21
2017-06-30T10:28:44.874Z,26.22
2017-06-30T10:29:06.200Z,26.22
2017-06-30T10:29:29.172Z,26.22
2017-06-30T10:29:50.061Z,26.21
2017-06-30T10:30:10.161Z,26.21
2017-06-30T10:30:29.374Z,26.20
2017-06-30T10:30:49.216Z,26.15
2017-06-30T10:31:09.150Z,26.17
2017-06-30T10:31:31.198Z,26.18
2017-06-30T10:31:51.911Z,26.16
2017-06-30T10:32:11.964Z,26.18
2017-06-30T10:32:32.130Z,26.18
2017-06-30T10:32:49.659Z,26.16
2017-06-30T10:33:09.121Z,26.18
2017-06-30T10:33:29.697Z,26.19
2017-06-30T10:33:47.111Z,26.17
2017-06-30T10:34:07.110Z,26.15
2017-06-30T10:34:27.047Z,26.18
2017-06-30T10:34:49.102Z,26.20
2017-06-30T10:35:08.417Z,26.22
2017-06-30T10:35:31.107Z,26.23
2017-06-30T10:35:53.090Z,26.24
2017-06-30T10:36:14.361Z,26.25
2017-06-30T10:36:29.513Z,26.26
2017-06-30T10:36:50.095Z,26.28
2017-06-30T10:37:10.882Z,26.29
2017-06-30T10:37:30.234Z,26.29
2017-06-30T10:37:51.066Z,26.30
2017-06-30T10:38:09.689Z,26.30
2017-06-30T10:38:30.058Z,26.30
2017-06-30T10:38:51.847Z,26.30
2017-06-30T10:39:13.763Z,26.30
2017-06-30T10:39:32.403Z,26.30
2017-06-30T10:39:49.805Z,26.30
2017-06-30T10:40:11.729Z,26.31
2017-06-30T10:40:32.030Z,26.30